Time;durP1;ratioP1;P1;durP2;ratioP2;P2;SDS_P1;SDS_P2;PMS_P1;PMS_P2;Temp;Humidity;BMP_temperature;BMP_pressure;BME280_temperature;BME280_humidity;BME280_pressure;Samples;Min_cycle;Max_cycle;Signal;HPM_P1;HPM_P2
2021/12/11 08:13:14;;;;;;;30.05;14.52;;;-1.10;99.90;;;;;;5166586;27;20106;-75
2021/12/11 08:15:40;;;;;;;28.45;14.10;;;-1.20;99.90;;;;;;5140203;27;20046;-77
2021/12/11 08:18:09;;;;;;;27.55;13.13;;;-1.20;99.90;;;;;;5133404;27;20049;-78
2021/12/11 08:20:36;;;;;;;27.58;14.63;;;-1.10;99.90;;;;;;5123247;27;20114;-78
2021/12/11 08:23:04;;;;;;;31.38;15.77;;;-1.20;99.90;;;;;;5124106;27;20126;-77
2021/12/11 08:25:31;;;;;;;30.98;15.65;;;-1.10;99.90;;;;;;5145643;27;20492;-77
2021/12/11 08:27:58;;;;;;;38.60;20.17;;;-1.00;99.90;;;;;;5145275;27;20090;-78
2021/12/11 08:30:26;;;;;;;36.70;19.10;;;-1.00;99.90;;;;;;5174878;27;20121;-77
2021/12/11 08:32:52;;;;;;;28.73;15.60;;;-0.90;99.90;;;;;;5129235;27;20483;-77
2021/12/11 08:35:19;;;;;;;29.85;16.40;;;-0.90;99.90;;;;;;5125451;27;20050;-77
2021/12/11 08:37:47;;;;;;;29.38;15.52;;;-0.90;99.90;;;;;;5126222;27;20384;-77
2021/12/11 08:40:19;;;;;;;28.13;13.93;;;-0.80;99.90;;;;;;5143278;27;20073;-76
2021/12/11 08:42:46;;;;;;;25.98;13.73;;;-0.80;99.90;;;;;;5144072;27;20046;-75
2021/12/11 08:45:21;;;;;;;29.77;15.15;;;-0.80;99.90;;;;;;5127091;27;20050;-75
2021/12/11 08:47:47;;;;;;;25.90;12.75;;;-0.80;99.90;;;;;;5139429;27;20096;-76
2021/12/11 08:50:17;;;;;;;28.95;15.32;;;-0.80;99.90;;;;;;5139912;27;20046;-76
2021/12/11 08:52:45;;;;;;;35.80;16.52;;;-0.70;99.90;;;;;;5133684;27;20038;-76
2021/12/11 08:55:15;;;;;;;29.92;15.52;;;-0.70;99.90;;;;;;5161665;27;20192;-76
2021/12/11 08:57:41;;;;;;;30.38;15.43;;;-0.70;99.90;;;;;;5145004;27;20038;-76
2021/12/11 09:00:21;;;;;;;29.08;15.18;;;-0.60;99.90;;;;;;5163142;27;20042;-76
2021/12/11 09:03:02;;;;;;;26.50;13.95;;;-0.60;99.90;;;;;;5129092;27;20039;-76
2021/12/11 09:05:45;;;;;;;32.22;16.65;;;-0.60;99.90;;;;;;5164158;27;20083;-76
2021/12/11 09:08:41;;;;;;;29.05;16.00;;;-0.60;99.90;;;;;;5175092;27;20122;-76
2021/12/11 09:11:36;;;;;;;30.65;16.73;;;-0.50;99.90;;;;;;5130561;27;20403;-76
2021/12/11 09:14:20;;;;;;;30.90;15.88;;;-0.50;99.90;;;;;;5131014;27;20049;-76
2021/12/11 09:16:53;;;;;;;26.73;15.60;;;-0.50;99.90;;;;;;5131547;27;20042;-76
2021/12/11 09:19:30;;;;;;;29.77;16.77;;;-0.40;99.90;;;;;;5130888;27;20046;-76
2021/12/11 09:22:11;;;;;;;36.90;19.80;;;-0.40;99.90;;;;;;5128459;27;20074;-76
2021/12/11 09:24:49;;;;;;;35.15;18.33;;;-0.30;99.90;;;;;;5096200;27;20515;-76
2021/12/11 09:27:40;;;;;;;37.03;19.65;;;-0.30;99.90;;;;;;5132232;27;20151;-76
2021/12/11 09:30:15;;;;;;;36.95;20.05;;;-0.20;99.90;;;;;;5123517;27;20087;-76
2021/12/11 09:32:54;;;;;;;44.17;22.73;;;-0.10;99.90;;;;;;5122516;27;20064;-82
2021/12/11 09:35:34;;;;;;;45.47;21.25;;;-0.10;99.90;;;;;;5111319;27;20735;-82
2021/12/11 09:38:07;;;;;;;38.35;20.25;;;-0.10;99.90;;;;;;5121656;27;20069;-77
2021/12/11 09:40:38;;;;;;;44.40;23.67;;;0.00;99.90;;;;;;5118132;27;20037;-77
2021/12/11 09:43:04;;;;;;;44.17;23.50;;;0.00;99.90;;;;;;5105300;27;20605;-77
2021/12/11 09:45:42;;;;;;;43.40;24.73;;;0.10;99.90;;;;;;5129712;27;20121;-77
2021/12/11 09:48:17;;;;;;;51.85;26.58;;;0.20;99.90;;;;;;5160096;27;20039;-75
2021/12/11 09:50:59;;;;;;;49.63;24.98;;;0.20;99.90;;;;;;5126630;27;20062;-76
2021/12/11 09:53:30;;;;;;;48.40;24.65;;;0.20;99.90;;;;;;5122921;27;20046;-77
2021/12/11 09:55:56;;;;;;;51.53;25.00;;;0.20;99.90;;;;;;5102055;27;20035;-77
2021/12/11 09:58:29;;;;;;;44.83;22.50;;;0.30;99.90;;;;;;5131673;27;20544;-77
2021/12/11 10:01:12;;;;;;;50.30;26.33;;;0.30;99.90;;;;;;5096954;27;20023;-76
2021/12/11 10:03:46;;;;;;;55.08;28.00;;;0.40;99.90;;;;;;5104314;27;20031;-77
2021/12/11 10:06:37;;;;;;;51.08;26.33;;;0.40;99.90;;;;;;5098209;27;20496;-76
2021/12/11 10:09:17;;;;;;;47.88;25.63;;;0.50;99.90;;;;;;5115462;27;20039;-76
2021/12/11 10:11:45;;;;;;;53.53;24.33;;;0.60;99.90;;;;;;5119115;27;20050;-79
2021/12/11 10:14:15;;;;;;;59.20;28.65;;;0.60;99.90;;;;;;5105001;27;20038;-76
2021/12/11 10:16:47;;;;;;;61.70;32.88;;;0.60;99.90;;;;;;5122011;27;20384;-76
2021/12/11 10:19:16;;;;;;;55.58;28.92;;;0.70;99.90;;;;;;5133976;27;20117;-76
2021/12/11 10:22:13;;;;;;;57.10;29.20;;;0.70;99.90;;;;;;5126841;27;20046;-77
2021/12/11 10:24:39;;;;;;;55.45;28.15;;;0.70;99.90;;;;;;5100898;27;20058;-77
2021/12/11 10:27:08;;;;;;;56.55;28.48;;;0.70;99.90;;;;;;5131106;27;20039;-80
2021/12/11 10:29:35;;;;;;;52.72;28.23;;;0.80;99.90;;;;;;5131543;27;20039;-76
2021/12/11 10:32:07;;;;;;;57.20;28.23;;;0.90;99.90;;;;;;5125996;27;20046;-76
2021/12/11 10:34:35;;;;;;;57.38;29.88;;;0.90;99.90;;;;;;5116215;27;20043;-77
2021/12/11 10:37:09;;;;;;;60.80;28.55;;;0.90;99.90;;;;;;5109469;27;20422;-76
2021/12/11 10:39:37;;;;;;;60.22;29.42;;;0.90;99.90;;;;;;5119297;27;20043;-76
2021/12/11 10:42:05;;;;;;;56.30;28.75;;;0.90;99.90;;;;;;5105295;27;20054;-76
2021/12/11 10:44:39;;;;;;;58.90;31.13;;;1.00;99.90;;;;;;5135387;27;20074;-76
2021/12/11 10:47:12;;;;;;;62.33;29.73;;;1.00;99.90;;;;;;5116708;27;20061;-77
2021/12/11 10:49:39;;;;;;;60.65;30.63;;;1.10;99.90;;;;;;5118489;27;20027;-78
2021/12/11 10:52:11;;;;;;;64.95;31.92;;;1.10;99.90;;;;;;5122397;27;20038;-78
2021/12/11 10:54:37;;;;;;;61.00;31.77;;;1.10;99.90;;;;;;5106864;27;20034;-78
2021/12/11 10:57:03;;;;;;;67.90;33.90;;;1.20;99.90;;;;;;5100013;27;20041;-76
2021/12/11 10:59:32;;;;;;;75.88;37.58;;;1.20;99.90;;;;;;5116399;27;20030;-76
2021/12/11 11:02:11;;;;;;;65.65;33.08;;;1.20;99.90;;;;;;5148010;27;20492;-76
2021/12/11 11:04:48;;;;;;;63.45;30.65;;;1.30;99.90;;;;;;5136696;27;20039;-77
2021/12/11 11:07:14;;;;;;;65.20;31.40;;;1.30;99.90;;;;;;5099602;27;20057;-77
2021/12/11 11:09:40;;;;;;;65.13;32.33;;;1.30;99.90;;;;;;5106236;27;20513;-77
2021/12/11 11:12:10;;;;;;;70.07;33.95;;;1.40;99.90;;;;;;5120398;27;20538;-77
2021/12/11 11:14:36;;;;;;;63.72;32.63;;;1.40;99.90;;;;;;5100952;27;20129;-76
2021/12/11 11:17:12;;;;;;;64.03;32.28;;;1.40;99.90;;;;;;5106048;27;20152;-77
2021/12/11 11:19:40;;;;;;;73.55;36.75;;;1.50;99.90;;;;;;5134031;27;20072;-77
2021/12/11 11:22:14;;;;;;;69.72;35.45;;;1.50;99.90;;;;;;5104341;27;20437;-77
2021/12/11 11:24:46;;;;;;;65.50;33.47;;;1.50;99.90;;;;;;5151181;27;20042;-77
2021/12/11 11:27:12;;;;;;;78.03;34.83;;;1.50;99.90;;;;;;5120589;27;20038;-77
2021/12/11 11:29:41;;;;;;;76.03;36.47;;;1.60;99.90;;;;;;5103439;27;20069;-77
2021/12/11 11:32:14;;;;;;;72.03;34.53;;;1.60;99.90;;;;;;5117629;27;20330;-76
2021/12/11 11:34:40;;;;;;;74.50;35.45;;;1.70;99.90;;;;;;5100931;27;20039;-77
2021/12/11 11:37:12;;;;;;;71.80;36.17;;;1.70;99.90;;;;;;5122615;27;20404;-76
2021/12/11 11:39:38;;;;;;;74.60;35.33;;;1.80;99.90;;;;;;5115669;27;20497;-76
2021/12/11 11:42:08;;;;;;;71.65;33.72;;;1.80;99.90;;;;;;5113207;27;20053;-75
2021/12/11 11:44:34;;;;;;;68.72;32.83;;;1.90;99.90;;;;;;5114061;27;20412;-77
2021/12/11 11:47:03;;;;;;;76.85;35.50;;;1.90;99.90;;;;;;5140771;27;20081;-76
2021/12/11 11:49:29;;;;;;;70.93;38.00;;;2.00;99.90;;;;;;5120041;27;20047;-76
2021/12/11 11:51:59;;;;;;;69.63;35.10;;;2.00;99.90;;;;;;5121793;27;20092;-81
2021/12/11 11:54:28;;;;;;;81.10;36.20;;;2.10;99.90;;;;;;5117566;27;20034;-76
2021/12/11 11:57:16;;;;;;;71.28;34.35;;;2.10;99.90;;;;;;5123932;27;20066;-74
2021/12/11 11:59:42;;;;;;;70.93;33.95;;;2.10;99.90;;;;;;5112737;27;20133;-74
2021/12/11 12:02:17;;;;;;;73.47;34.67;;;2.10;99.90;;;;;;5115481;27;20133;-73
2021/12/11 12:04:45;;;;;;;75.25;38.17;;;2.20;99.90;;;;;;5134316;27;20047;-74
2021/12/11 12:07:11;;;;;;;70.88;32.67;;;2.20;99.90;;;;;;5117706;27;20084;-74
2021/12/11 12:09:42;;;;;;;70.97;34.47;;;2.30;99.90;;;;;;5122901;27;20376;-77
2021/12/11 12:12:10;;;;;;;72.55;33.92;;;2.30;99.90;;;;;;5124877;27;20533;-76
2021/12/11 12:14:38;;;;;;;73.50;32.80;;;2.30;99.90;;;;;;5128888;27;20046;-76
2021/12/11 12:17:06;;;;;;;72.15;35.60;;;2.30;99.90;;;;;;5099938;28;20510;-77
2021/12/11 12:19:31;;;;;;;69.03;34.28;;;2.40;99.90;;;;;;5094584;28;20039;-76
2021/12/11 12:22:02;;;;;;;69.88;33.95;;;2.40;99.90;;;;;;5112021;28;20065;-77
2021/12/11 12:24:31;;;;;;;66.88;32.55;;;2.40;99.90;;;;;;5094387;27;20063;-77
2021/12/11 12:26:59;;;;;;;67.18;33.70;;;2.50;99.90;;;;;;5094973;27;20067;-76
2021/12/11 12:29:26;;;;;;;69.35;32.20;;;2.50;99.90;;;;;;5110920;27;20538;-77
2021/12/11 12:31:59;;;;;;;78.85;34.63;;;2.60;99.90;;;;;;5147067;27;20043;-77
2021/12/11 12:34:27;;;;;;;73.38;35.33;;;2.60;99.90;;;;;;5132223;27;20035;-77
2021/12/11 12:36:55;;;;;;;82.00;46.65;;;2.70;99.90;;;;;;5130027;27;20066;-76
2021/12/11 12:39:25;;;;;;;70.00;33.05;;;2.70;99.90;;;;;;5131837;27;20160;-77
2021/12/11 12:42:04;;;;;;;75.20;36.80;;;2.80;99.90;;;;;;5131991;27;20074;-77
2021/12/11 12:44:33;;;;;;;82.30;38.67;;;2.80;99.90;;;;;;5113789;27;20044;-77
2021/12/11 12:47:10;;;;;;;76.13;36.58;;;2.90;99.90;;;;;;5117236;27;20392;-77
2021/12/11 12:49:40;;;;;;;82.65;37.33;;;2.90;99.90;;;;;;5094266;27;20085;-77
2021/12/11 12:52:16;;;;;;;85.18;45.60;;;2.90;99.90;;;;;;5146615;27;20196;-77
2021/12/11 12:54:43;;;;;;;70.55;31.23;;;3.00;99.90;;;;;;5148492;27;20041;-76
2021/12/11 12:57:18;;;;;;;68.88;32.65;;;2.90;99.90;;;;;;5148803;27;20050;-77
2021/12/11 12:59:54;;;;;;;62.63;30.42;;;3.00;99.90;;;;;;5144301;27;20042;-77
2021/12/11 13:02:23;;;;;;;69.70;29.30;;;3.00;99.90;;;;;;5114955;27;20492;-77
2021/12/11 13:04:55;;;;;;;60.60;29.60;;;3.10;99.90;;;;;;5117678;27;20245;-77
2021/12/11 13:07:21;;;;;;;61.58;29.92;;;3.00;99.90;;;;;;5135311;27;20504;-77
2021/12/11 13:09:57;;;;;;;58.33;27.88;;;3.10;99.90;;;;;;5135566;27;20039;-74
2021/12/11 13:12:31;;;;;;;55.40;27.00;;;3.10;99.90;;;;;;5135006;27;20543;-74
2021/12/11 13:15:03;;;;;;;55.92;27.65;;;3.10;99.90;;;;;;5134939;27;20476;-74
2021/12/11 13:17:35;;;;;;;61.60;27.50;;;3.20;99.90;;;;;;5152329;27;20035;-74
2021/12/11 13:20:09;;;;;;;65.40;29.67;;;3.10;99.90;;;;;;5116625;27;20046;-74
2021/12/11 13:22:39;;;;;;;56.08;27.98;;;3.20;99.90;;;;;;5117677;27;20065;-74
2021/12/11 13:25:14;;;;;;;60.55;28.35;;;3.20;99.90;;;;;;5117813;27;20070;-74
2021/12/11 13:27:41;;;;;;;57.70;27.17;;;3.20;99.90;;;;;;5134614;27;20085;-74
2021/12/11 13:30:14;;;;;;;56.40;26.60;;;3.10;99.90;;;;;;5099042;27;20043;-74
2021/12/11 13:32:41;;;;;;;59.65;28.17;;;3.10;99.90;;;;;;5114427;27;20084;-75
2021/12/11 13:35:15;;;;;;;57.72;25.45;;;3.00;99.90;;;;;;5130701;27;20038;-75
2021/12/11 13:37:41;;;;;;;57.55;27.08;;;3.00;99.90;;;;;;5134989;27;20038;-75
2021/12/11 13:40:10;;;;;;;63.53;28.55;;;3.00;99.90;;;;;;5118142;27;20034;-75
2021/12/11 13:42:40;;;;;;;62.83;27.80;;;3.00;99.90;;;;;;5117231;27;20076;-74
2021/12/11 13:45:19;;;;;;;62.63;28.27;;;3.00;99.90;;;;;;5114671;27;20067;-74
2021/12/11 13:47:46;;;;;;;59.00;27.73;;;3.00;99.90;;;;;;5097422;27;20492;-74
2021/12/11 13:50:17;;;;;;;59.85;27.83;;;3.10;99.90;;;;;;5109387;27;20038;-74
2021/12/11 13:52:43;;;;;;;52.63;26.88;;;3.10;99.90;;;;;;5116980;27;20125;-77
2021/12/11 13:55:10;;;;;;;62.15;28.02;;;3.10;99.90;;;;;;5117452;27;20152;-77
2021/12/11 13:57:36;;;;;;;49.95;26.52;;;3.20;99.90;;;;;;5132267;27;20057;-76
2021/12/11 14:00:08;;;;;;;58.72;27.02;;;3.10;99.90;;;;;;5147613;27;20035;-77
2021/12/11 14:02:34;;;;;;;58.15;25.58;;;3.20;99.90;;;;;;5113626;27;20047;-76
2021/12/11 14:04:59;;;;;;;53.38;26.95;;;3.20;99.90;;;;;;5147704;27;20050;-77
2021/12/11 14:07:28;;;;;;;57.95;27.52;;;3.20;99.90;;;;;;5131068;27;20043;-77
2021/12/11 14:10:02;;;;;;;59.58;26.38;;;3.20;99.90;;;;;;5116524;27;20038;-76
2021/12/11 14:12:30;;;;;;;62.35;27.17;;;3.10;99.90;;;;;;5116646;27;20491;-77
2021/12/11 14:14:59;;;;;;;57.00;25.73;;;3.10;99.90;;;;;;5116295;27;20038;-77
2021/12/11 14:17:26;;;;;;;50.42;25.15;;;3.00;99.90;;;;;;5134321;27;20334;-77
2021/12/11 14:19:52;;;;;;;55.85;26.02;;;3.00;99.90;;;;;;5129336;27;20031;-74
2021/12/11 14:22:20;;;;;;;55.70;26.55;;;3.00;99.90;;;;;;5105015;27;20397;-74
2021/12/11 14:24:46;;;;;;;58.80;27.00;;;3.00;99.90;;;;;;5168150;27;20041;-74
2021/12/11 14:27:14;;;;;;;56.33;26.02;;;2.90;99.90;;;;;;5168249;27;20491;-74
2021/12/11 14:29:46;;;;;;;59.15;27.88;;;2.90;99.90;;;;;;5149686;27;20034;-74
2021/12/11 14:32:18;;;;;;;54.60;26.08;;;2.90;99.90;;;;;;5115299;27;20039;-74
2021/12/11 14:34:45;;;;;;;58.25;27.23;;;2.90;99.90;;;;;;5143126;27;20543;-74
2021/12/11 14:37:11;;;;;;;54.40;26.67;;;2.90;99.90;;;;;;5116616;27;20038;-75
2021/12/11 14:39:38;;;;;;;61.85;28.60;;;2.90;99.90;;;;;;5160312;27;20083;-74
2021/12/11 14:42:04;;;;;;;56.15;26.17;;;2.90;99.90;;;;;;5114952;27;20081;-74
2021/12/11 14:44:31;;;;;;;62.15;26.73;;;2.90;99.90;;;;;;5131778;27;20035;-77
2021/12/11 14:47:05;;;;;;;61.28;28.25;;;2.80;99.90;;;;;;5116562;27;20039;-77
2021/12/11 14:49:31;;;;;;;60.78;28.33;;;2.80;99.90;;;;;;5133672;27;20047;-77
2021/12/11 14:51:58;;;;;;;61.00;29.88;;;2.80;99.90;;;;;;5116342;27;20039;-77
2021/12/11 14:54:25;;;;;;;59.67;30.25;;;2.80;99.90;;;;;;5098730;27;20118;-74
2021/12/11 14:56:53;;;;;;;60.58;28.33;;;2.80;99.90;;;;;;5112672;27;20121;-74
2021/12/11 14:59:26;;;;;;;63.22;29.73;;;2.80;99.90;;;;;;5112477;27;20109;-75
2021/12/11 15:01:58;;;;;;;67.32;31.77;;;2.70;99.90;;;;;;5116471;27;20094;-74
2021/12/11 15:04:31;;;;;;;66.10;30.75;;;2.70;99.90;;;;;;5116467;27;20043;-75
2021/12/11 15:06:57;;;;;;;58.70;28.05;;;2.60;99.90;;;;;;5116307;27;20388;-75
2021/12/11 15:09:23;;;;;;;66.90;31.67;;;2.60;99.90;;;;;;5163308;27;20053;-77
2021/12/11 15:11:51;;;;;;;58.33;27.63;;;2.60;99.90;;;;;;5118262;27;20093;-77
2021/12/11 15:14:21;;;;;;;84.47;38.08;;;2.50;99.90;;;;;;5108551;28;20039;-77
2021/12/11 15:16:52;;;;;;;89.78;41.53;;;2.50;99.90;;;;;;5092193;28;20080;-77
2021/12/11 15:19:18;;;;;;;68.80;33.30;;;2.50;99.90;;;;;;5091914;28;20039;-77
2021/12/11 15:21:44;;;;;;;65.65;32.88;;;2.50;99.90;;;;;;5105145;28;20104;-77
2021/12/11 15:24:10;;;;;;;60.55;30.30;;;2.50;99.90;;;;;;5109145;28;20042;-77
2021/12/11 15:26:38;;;;;;;66.28;29.70;;;2.50;99.90;;;;;;5088376;28;20079;-77
2021/12/11 15:29:08;;;;;;;74.72;31.85;;;2.40;99.90;;;;;;5089507;28;20627;-77
2021/12/11 15:31:36;;;;;;;70.43;29.88;;;2.40;99.90;;;;;;5108485;28;20050;-75
2021/12/11 15:34:06;;;;;;;75.82;30.83;;;2.30;99.90;;;;;;5106478;27;20040;-74
2021/12/11 15:36:34;;;;;;;63.75;28.80;;;2.30;99.90;;;;;;5086309;28;20488;-74
2021/12/11 15:39:13;;;;;;;66.32;30.02;;;2.30;99.90;;;;;;5108689;28;20066;-74
2021/12/11 15:41:39;;;;;;;74.65;30.23;;;2.20;99.90;;;;;;5108399;28;20074;-74
2021/12/11 15:44:05;;;;;;;69.07;27.23;;;2.20;99.90;;;;;;5090337;28;20079;-74
2021/12/11 15:46:31;;;;;;;66.32;28.80;;;2.20;99.90;;;;;;5091651;28;20086;-74
2021/12/11 15:48:57;;;;;;;54.65;25.50;;;2.20;99.90;;;;;;5102057;28;20116;-74
2021/12/11 15:51:29;;;;;;;64.18;23.45;;;2.10;99.90;;;;;;5079279;28;20114;-74
2021/12/11 15:53:55;;;;;;;60.40;22.33;;;2.10;99.90;;;;;;5070967;28;20044;-74
2021/12/11 15:56:21;;;;;;;60.78;21.50;;;2.10;99.90;;;;;;5083696;28;20039;-74
2021/12/11 15:58:49;;;;;;;88.13;26.63;;;2.10;99.90;;;;;;5106973;28;20043;-74
2021/12/11 16:01:28;;;;;;;77.93;22.05;;;2.00;99.90;;;;;;5091653;28;20074;-74
2021/12/11 16:03:56;;;;;;;56.22;22.02;;;1.90;99.90;;;;;;5091071;28;20046;-74
2021/12/11 16:06:22;;;;;;;65.63;23.65;;;1.90;99.90;;;;;;5094898;28;20119;-74
2021/12/11 16:08:52;;;;;;;63.15;22.45;;;1.90;99.90;;;;;;5105221;28;20119;-74
2021/12/11 16:11:19;;;;;;;57.88;22.48;;;1.90;99.90;;;;;;5100034;27;20522;-73
2021/12/11 16:13:46;;;;;;;53.53;19.95;;;1.90;99.90;;;;;;5135088;27;20059;-74
2021/12/11 16:16:12;;;;;;;63.55;20.67;;;1.90;99.90;;;;;;5111935;28;20043;-74
2021/12/11 16:18:40;;;;;;;60.13;21.55;;;1.90;99.90;;;;;;5097972;28;20110;-74
2021/12/11 16:21:09;;;;;;;66.05;20.25;;;1.90;99.90;;;;;;5097821;28;20493;-74
2021/12/11 16:23:43;;;;;;;58.58;18.83;;;2.00;99.90;;;;;;5107935;28;20043;-74
2021/12/11 16:26:11;;;;;;;61.38;18.77;;;1.90;99.90;;;;;;5091060;28;20044;-74
2021/12/11 16:28:38;;;;;;;65.10;19.38;;;1.90;99.90;;;;;;5106835;28;20164;-74
2021/12/11 16:31:04;;;;;;;67.40;18.98;;;1.90;99.90;;;;;;5090525;28;20553;-74
2021/12/11 16:33:31;;;;;;;65.93;18.58;;;1.90;99.90;;;;;;5126084;27;20519;-74
2021/12/11 16:35:57;;;;;;;68.50;18.67;;;1.90;99.90;;;;;;5114504;27;20056;-74
2021/12/11 16:38:30;;;;;;;62.95;20.20;;;1.90;99.90;;;;;;5115269;27;20069;-74
2021/12/11 16:41:25;;;;;;;65.95;19.38;;;1.90;99.90;;;;;;5132548;27;20520;-74
2021/12/11 16:43:54;;;;;;;74.85;18.33;;;1.90;99.90;;;;;;5092671;27;20047;-74
2021/12/11 16:46:24;;;;;;;51.10;17.23;;;1.90;99.90;;;;;;5131967;27;20072;-76
2021/12/11 16:48:50;;;;;;;57.65;18.45;;;1.90;99.90;;;;;;5126035;27;20043;-75
2021/12/11 16:51:16;;;;;;;58.72;20.50;;;1.90;99.90;;;;;;5149992;27;20035;-74
2021/12/11 16:53:46;;;;;;;69.28;20.67;;;1.90;99.90;;;;;;5135410;27;20036;-74
2021/12/11 16:56:17;;;;;;;83.38;22.17;;;2.00;99.90;;;;;;5135982;27;20039;-75
2021/12/11 16:58:43;;;;;;;66.60;18.83;;;2.00;99.90;;;;;;5151871;27;20045;-75
2021/12/11 17:01:19;;;;;;;64.88;20.58;;;2.00;99.90;;;;;;5137273;27;20027;-75
2021/12/11 17:03:46;;;;;;;60.78;20.30;;;2.00;99.90;;;;;;5108014;27;20208;-74
2021/12/11 17:06:24;;;;;;;68.38;21.05;;;2.00;99.90;;;;;;5132326;27;20110;-75
2021/12/11 17:08:51;;;;;;;75.70;20.38;;;2.10;99.90;;;;;;5149937;27;20132;-75
2021/12/11 17:11:17;;;;;;;72.22;21.02;;;2.00;99.90;;;;;;5135198;27;20081;-75
2021/12/11 17:13:43;;;;;;;80.72;24.52;;;2.00;99.90;;;;;;5124612;27;20090;-74
2021/12/11 17:16:09;;;;;;;64.28;19.80;;;2.00;99.90;;;;;;5107180;27;20523;-75
2021/12/11 17:18:38;;;;;;;66.25;20.98;;;2.00;99.90;;;;;;5115842;27;20042;-74
2021/12/11 17:21:08;;;;;;;92.78;21.58;;;2.00;99.90;;;;;;5112969;27;20566;-75
2021/12/11 17:23:35;;;;;;;88.22;20.50;;;2.00;99.90;;;;;;5130295;27;20035;-75
2021/12/11 17:26:00;;;;;;;84.38;19.90;;;2.10;99.90;;;;;;5129071;27;20050;-75
2021/12/11 17:28:32;;;;;;;77.85;20.98;;;2.00;99.90;;;;;;5113556;27;20035;-75
2021/12/11 17:30:58;;;;;;;90.80;21.20;;;2.00;99.90;;;;;;5122997;27;20036;-75
2021/12/11 17:33:25;;;;;;;91.32;21.52;;;2.00;99.90;;;;;;5094228;28;20455;-75
2021/12/11 17:35:51;;;;;;;66.55;21.67;;;2.00;99.90;;;;;;5094661;28;20138;-75
2021/12/11 17:38:18;;;;;;;102.78;20.98;;;2.00;99.90;;;;;;5110646;28;20122;-75
2021/12/11 17:40:44;;;;;;;77.78;19.00;;;2.00;99.90;;;;;;5093963;28;20089;-75
2021/12/11 17:43:11;;;;;;;64.40;18.38;;;2.00;99.90;;;;;;5092562;28;20262;-75
2021/12/11 17:45:39;;;;;;;96.68;19.45;;;2.00;99.90;;;;;;5117690;27;20043;-75
2021/12/11 17:48:06;;;;;;;79.88;19.35;;;2.00;99.90;;;;;;5114061;27;20039;-74
2021/12/11 17:50:39;;;;;;;98.43;25.95;;;2.00;99.90;;;;;;5114200;27;20048;-74
2021/12/11 17:53:06;;;;;;;89.40;18.95;;;2.00;99.90;;;;;;5113754;27;20053;-74
2021/12/11 17:55:41;;;;;;;64.22;18.23;;;2.00;99.90;;;;;;5131026;27;20039;-74
2021/12/11 17:58:08;;;;;;;69.53;18.08;;;2.00;99.90;;;;;;5130100;27;20277;-74
2021/12/11 18:00:41;;;;;;;73.03;17.63;;;2.00;99.90;;;;;;5120161;27;20073;-75
2021/12/11 18:03:07;;;;;;;62.30;20.83;;;2.00;99.90;;;;;;5093713;28;20051;-74
2021/12/11 18:05:37;;;;;;;68.45;16.27;;;2.00;99.90;;;;;;5110562;28;20396;-74
2021/12/11 18:08:08;;;;;;;88.45;19.00;;;2.00;99.90;;;;;;5115303;27;20051;-74
2021/12/11 18:10:44;;;;;;;83.85;22.85;;;2.00;99.90;;;;;;5151535;27;20094;-75
2021/12/11 18:13:32;;;;;;;95.32;17.65;;;2.00;99.90;;;;;;5127982;27;20652;-74
2021/12/11 18:16:06;;;;;;;64.28;17.40;;;2.00;99.90;;;;;;5109887;27;20043;-75
2021/12/11 18:18:42;;;;;;;51.55;17.70;;;2.00;99.90;;;;;;5093230;28;20043;-76
2021/12/11 18:21:10;;;;;;;;;;;2.00;99.90;;;;;;5110857;28;20035;-74
2021/12/11 18:23:37;;;;;;;67.85;16.10;;;2.00;99.90;;;;;;5110070;28;19923;-74
2021/12/11 18:26:08;;;;;;;76.82;18.90;;;2.00;99.90;;;;;;5110714;28;20050;-75
2021/12/11 18:28:35;;;;;;;68.22;17.33;;;2.00;99.90;;;;;;5109136;27;20397;-75
2021/12/11 18:31:05;;;;;;;71.78;18.15;;;2.00;99.90;;;;;;5112407;27;20062;-75
2021/12/11 18:33:33;;;;;;;68.35;18.23;;;2.00;99.90;;;;;;5110205;28;20039;-75
2021/12/11 18:36:07;;;;;;;105.40;21.40;;;2.00;99.90;;;;;;5129628;27;20046;-75
2021/12/11 18:38:33;;;;;;;98.85;18.10;;;2.00;99.90;;;;;;5130673;27;20039;-75
2021/12/11 18:41:19;;;;;;;52.90;17.83;;;1.90;99.90;;;;;;5113192;27;20041;-74
2021/12/11 18:43:47;;;;;;;78.22;18.20;;;2.00;99.90;;;;;;5093716;28;20052;-75
2021/12/11 18:46:17;;;;;;;95.07;20.23;;;2.00;99.90;;;;;;5110169;28;20039;-74
2021/12/11 18:48:43;;;;;;;87.22;18.27;;;2.00;99.90;;;;;;5092983;28;20538;-75
2021/12/11 18:51:17;;;;;;;108.93;20.98;;;2.00;99.90;;;;;;5109600;28;20035;-74
2021/12/11 18:53:46;;;;;;;72.38;18.50;;;2.00;99.90;;;;;;5109558;28;20071;-75
2021/12/11 18:56:12;;;;;;;113.88;30.25;;;2.00;99.90;;;;;;5108832;27;20081;-74
2021/12/11 18:58:43;;;;;;;96.53;19.52;;;2.00;99.90;;;;;;5127669;27;20035;-74
2021/12/11 19:01:08;;;;;;;78.38;20.40;;;2.00;99.90;;;;;;5112522;27;20035;-75
2021/12/11 19:03:38;;;;;;;77.40;19.02;;;2.00;99.90;;;;;;5129484;27;20046;-75
2021/12/11 19:06:08;;;;;;;79.78;18.33;;;2.00;99.90;;;;;;5127391;27;20043;-75
2021/12/11 19:08:34;;;;;;;103.38;21.55;;;2.00;99.90;;;;;;5127872;27;20492;-75
2021/12/11 19:11:23;;;;;;;79.65;19.38;;;2.00;99.90;;;;;;5149796;27;20548;-75
2021/12/11 19:13:51;;;;;;;94.30;22.25;;;2.00;99.90;;;;;;5090757;28;20051;-74
2021/12/11 19:16:18;;;;;;;83.78;19.70;;;2.00;99.90;;;;;;5092381;28;20519;-74
2021/12/11 19:18:45;;;;;;;102.53;21.50;;;2.00;99.90;;;;;;5119934;27;20066;-75
2021/12/11 19:21:18;;;;;;;128.70;24.15;;;2.00;99.90;;;;;;5112168;27;20069;-74
2021/12/11 19:23:45;;;;;;;90.10;20.65;;;2.00;99.90;;;;;;5128961;27;20047;-74
2021/12/11 19:26:11;;;;;;;75.15;20.88;;;2.10;99.90;;;;;;5129227;27;20035;-75
2021/12/11 19:28:37;;;;;;;75.50;19.30;;;2.00;99.90;;;;;;5104583;28;20050;-75
2021/12/11 19:31:16;;;;;;;80.03;18.92;;;2.10;99.90;;;;;;5108569;28;20071;-75
2021/12/11 19:33:48;;;;;;;108.18;23.15;;;2.10;99.90;;;;;;5091274;28;20048;-75
2021/12/11 19:36:17;;;;;;;89.82;21.45;;;2.10;99.90;;;;;;5091695;28;20497;-75
2021/12/11 19:38:45;;;;;;;87.20;20.92;;;2.10;99.90;;;;;;5108508;28;20137;-74
2021/12/11 19:41:12;;;;;;;100.60;22.35;;;2.10;99.90;;;;;;5108884;28;20308;-75
2021/12/11 19:43:39;;;;;;;78.72;19.73;;;2.20;99.90;;;;;;5112215;27;20403;-75
2021/12/11 19:46:06;;;;;;;76.28;20.40;;;2.10;99.90;;;;;;5107299;28;20055;-74
2021/12/11 19:48:34;;;;;;;75.35;19.88;;;2.20;99.90;;;;;;5108735;28;20523;-75
2021/12/11 19:51:05;;;;;;;85.43;20.15;;;2.20;99.90;;;;;;5091550;28;20039;-74
2021/12/11 19:53:33;;;;;;;79.35;20.30;;;2.20;99.90;;;;;;5108071;28;20035;-75
2021/12/11 19:55:59;;;;;;;67.20;19.55;;;2.30;99.90;;;;;;5117612;27;20091;-75
2021/12/11 19:58:32;;;;;;;73.97;20.15;;;2.30;99.90;;;;;;5128407;27;20722;-75
2021/12/11 20:01:07;;;;;;;104.22;23.25;;;2.30;99.90;;;;;;5128155;27;20039;-75
2021/12/11 20:03:36;;;;;;;76.90;20.05;;;2.40;99.90;;;;;;5109099;28;20035;-74
2021/12/11 20:06:14;;;;;;;71.22;20.02;;;2.30;99.90;;;;;;5112109;27;20043;-75
2021/12/11 20:08:47;;;;;;;86.80;22.67;;;2.40;99.90;;;;;;5107757;28;20074;-74
2021/12/11 20:11:17;;;;;;;90.53;23.25;;;2.40;99.90;;;;;;5104193;28;20098;-75
2021/12/11 20:13:44;;;;;;;86.00;21.60;;;2.40;99.90;;;;;;5069816;28;20122;-75
2021/12/11 20:16:14;;;;;;;79.13;22.45;;;2.40;99.90;;;;;;5090268;28;20046;-75
2021/12/11 20:18:45;;;;;;;73.28;20.08;;;2.40;99.90;;;;;;5105371;28;20311;-75
2021/12/11 20:21:38;;;;;;;76.57;22.17;;;2.50;99.90;;;;;;5108091;28;20138;-74
2021/12/11 20:24:06;;;;;;;64.57;21.77;;;2.50;99.90;;;;;;5107841;28;20451;-75
2021/12/11 20:26:33;;;;;;;95.32;23.85;;;2.50;99.90;;;;;;5108115;28;20114;-74
2021/12/11 20:29:04;;;;;;;89.53;22.83;;;2.60;99.90;;;;;;5103445;28;20035;-74
2021/12/11 20:31:36;;;;;;;97.32;24.00;;;2.60;99.90;;;;;;5087748;28;20085;-74
2021/12/11 20:34:03;;;;;;;67.43;21.45;;;2.60;99.90;;;;;;5090720;28;20409;-75
2021/12/11 20:36:29;;;;;;;71.25;23.23;;;2.60;99.90;;;;;;5108066;28;20123;-75
2021/12/11 20:38:58;;;;;;;70.82;23.00;;;2.70;99.90;;;;;;5090693;28;20181;-75
2021/12/11 20:41:42;;;;;;;75.65;22.75;;;2.70;99.90;;;;;;5091131;28;20031;-75
2021/12/11 20:44:10;;;;;;;84.93;22.98;;;2.70;99.90;;;;;;5104683;28;20063;-74
2021/12/11 20:46:36;;;;;;;74.30;22.95;;;2.70;99.90;;;;;;5070593;28;20465;-75
2021/12/11 20:49:04;;;;;;;90.50;25.10;;;2.70;99.90;;;;;;5121305;27;20067;-75
2021/12/11 20:51:34;;;;;;;93.30;25.50;;;2.70;99.90;;;;;;5121839;27;20060;-75
2021/12/11 20:54:03;;;;;;;76.53;25.02;;;2.70;99.90;;;;;;5083140;28;20107;-75
2021/12/11 20:56:31;;;;;;;78.55;25.50;;;2.80;99.90;;;;;;5108080;28;20043;-75
2021/12/11 20:58:59;;;;;;;72.45;24.95;;;2.80;99.90;;;;;;5104579;28;20393;-75
2021/12/11 21:01:31;;;;;;;74.75;25.48;;;2.80;99.90;;;;;;5083326;28;20046;-75
2021/12/11 21:04:03;;;;;;;73.15;25.08;;;2.80;99.90;;;;;;5107914;28;20042;-75